createdAt,value
2023-01-30T00:02:13.492Z,67.89
2023-01-30T00:04:41.547Z,67.01
2023-01-30T00:07:10.972Z,66.46
2023-01-30T00:09:38.919Z,66.28
2023-01-30T00:12:07.797Z,66.05
2023-01-30T00:14:35.789Z,65.60
2023-01-30T00:17:03.749Z,65.56
2023-01-30T00:19:31.994Z,65.58
2023-01-30T00:22:00.150Z,66.26
2023-01-30T00:24:29.931Z,66.46
2023-01-30T00:26:58.257Z,66.05
2023-01-30T00:29:26.431Z,66.79
2023-01-30T00:31:54.467Z,66.40
2023-01-30T00:34:22.477Z,65.78
2023-01-30T00:37:02.498Z,65.13
2023-01-30T00:39:36.753Z,65.64
2023-01-30T00:42:22.542Z,64.91
2023-01-30T00:45:07.641Z,65.38
2023-01-30T00:47:35.672Z,65.73
2023-01-30T00:50:03.863Z,65.79
2023-01-30T00:52:31.982Z,65.81
2023-01-30T00:55:01.430Z,65.23
2023-01-30T00:57:29.407Z,64.84
2023-01-30T00:59:57.503Z,65.51
2023-01-30T01:02:25.496Z,65.41
2023-01-30T01:04:53.606Z,65.11
2023-01-30T01:07:22.141Z,65.18
2023-01-30T01:09:50.161Z,64.71
2023-01-30T01:12:19.559Z,64.88
2023-01-30T01:14:47.526Z,63.83
2023-01-30T01:17:15.860Z,63.57
2023-01-30T01:19:43.867Z,63.33
2023-01-30T01:22:12.104Z,63.54
2023-01-30T01:24:40.076Z,62.88
2023-01-30T01:27:08.077Z,63.03
2023-01-30T01:29:37.593Z,63.27
2023-01-30T01:32:06.075Z,63.18
2023-01-30T01:34:34.108Z,63.11
2023-01-30T01:37:02.273Z,62.99
2023-01-30T01:39:50.470Z,62.92
2023-01-30T01:42:17.954Z,63.49
2023-01-30T01:45:17.985Z,63.37
2023-01-30T01:47:55.741Z,63.35
2023-01-30T01:50:28.201Z,63.53
2023-01-30T01:52:58.366Z,63.66
2023-01-30T01:55:27.066Z,63.87
2023-01-30T01:57:59.196Z,63.91
2023-01-30T02:00:29.062Z,63.80
2023-01-30T02:03:00.066Z,63.33
2023-01-30T02:05:32.267Z,63.38
2023-01-30T02:08:05.477Z,63.55
2023-01-30T02:10:42.696Z,62.92
2023-01-30T02:13:10.935Z,63.33
2023-01-30T02:15:40.769Z,63.91
2023-01-30T02:18:09.166Z,63.54
2023-01-30T02:21:00.361Z,63.82
2023-01-30T02:23:54.803Z,64.01
2023-01-30T02:26:56.195Z,63.45
2023-01-30T02:30:10.061Z,63.38
2023-01-30T02:32:47.227Z,63.17
2023-01-30T02:35:25.599Z,63.09
2023-01-30T02:38:05.356Z,63.01
2023-01-30T02:40:48.579Z,62.97
2023-01-30T02:43:27.623Z,63.01
2023-01-30T02:46:01.711Z,62.83
2023-01-30T02:48:40.517Z,62.61
2023-01-30T02:51:13.791Z,63.91
2023-01-30T02:53:42.290Z,63.09
2023-01-30T02:56:10.305Z,62.55
2023-01-30T02:58:44.094Z,62.95
2023-01-30T03:01:46.016Z,62.19
2023-01-30T03:04:42.651Z,61.48
2023-01-30T03:07:23.802Z,60.23
2023-01-30T03:10:02.869Z,60.36
2023-01-30T03:12:42.459Z,59.73
2023-01-30T03:15:15.399Z,59.28
2023-01-30T03:17:47.011Z,59.46
2023-01-30T03:20:17.655Z,59.32
2023-01-30T03:22:45.681Z,58.31
2023-01-30T03:25:18.942Z,58.24
2023-01-30T03:27:47.361Z,57.86
2023-01-30T03:30:15.881Z,57.41
2023-01-30T03:32:43.880Z,57.37
2023-01-30T03:35:11.919Z,56.86
2023-01-30T03:37:41.298Z,57.29
2023-01-30T03:40:10.631Z,56.91
2023-01-30T03:42:38.634Z,57.27
2023-01-30T03:45:07.819Z,57.45
2023-01-30T03:47:35.804Z,57.35
2023-01-30T03:50:04.066Z,56.92
2023-01-30T03:52:32.065Z,56.52
2023-01-30T03:55:01.639Z,56.32
2023-01-30T03:57:29.655Z,57.05
2023-01-30T03:59:57.900Z,56.92
2023-01-30T04:02:26.371Z,57.50
2023-01-30T04:04:54.496Z,57.22
2023-01-30T04:07:22.673Z,56.54
2023-01-30T04:09:50.899Z,56.67
2023-01-30T04:12:20.467Z,57.07
2023-01-30T04:14:48.664Z,57.40
2023-01-30T04:17:16.712Z,57.92
2023-01-30T04:19:44.816Z,58.87
2023-01-30T04:22:12.813Z,59.45
2023-01-30T04:24:40.799Z,58.02
2023-01-30T04:27:09.327Z,57.59
2023-01-30T04:29:38.834Z,57.39
2023-01-30T04:32:07.024Z,57.04
2023-01-30T04:34:35.109Z,56.54
2023-01-30T04:37:03.258Z,56.54
2023-01-30T04:39:31.450Z,56.82
2023-01-30T04:41:59.639Z,56.80
2023-01-30T04:44:27.867Z,57.11
2023-01-30T04:46:57.234Z,57.11
2023-01-30T04:49:25.215Z,56.85
2023-01-30T04:51:53.458Z,57.06
2023-01-30T04:54:21.712Z,57.08
2023-01-30T04:56:49.805Z,56.84
2023-01-30T04:59:17.821Z,57.11
2023-01-30T05:01:45.907Z,56.84
2023-01-30T05:04:15.279Z,57.07
2023-01-30T05:06:43.294Z,56.57
2023-01-30T05:09:11.353Z,56.73
2023-01-30T05:11:39.416Z,56.96
2023-01-30T05:14:07.742Z,57.82
2023-01-30T05:16:35.773Z,57.53
2023-01-30T05:19:03.751Z,57.08
2023-01-30T05:21:33.385Z,58.49
2023-01-30T05:24:01.360Z,58.00
2023-01-30T05:26:29.372Z,57.55
2023-01-30T05:28:59.024Z,57.22
2023-01-30T05:31:27.476Z,57.06
2023-01-30T05:33:55.634Z,57.57
2023-01-30T05:36:24.596Z,57.37
2023-01-30T05:38:54.185Z,56.73
2023-01-30T05:41:22.199Z,56.10
2023-01-30T05:43:51.649Z,55.17
2023-01-30T05:46:20.261Z,55.48
2023-01-30T05:48:48.805Z,55.09
2023-01-30T05:51:19.280Z,54.39
2023-01-30T05:53:47.407Z,55.13
2023-01-30T05:56:16.828Z,54.78
2023-01-30T05:58:45.435Z,55.59
2023-01-30T06:01:14.315Z,54.78
2023-01-30T06:03:42.465Z,54.11
2023-01-30T06:06:13.579Z,55.34
2023-01-30T06:08:41.682Z,55.38
2023-01-30T06:11:12.268Z,55.21
2023-01-30T06:13:42.752Z,54.98
2023-01-30T06:16:15.750Z,55.57
2023-01-30T06:18:43.952Z,55.37
2023-01-30T06:21:12.017Z,55.40
2023-01-30T06:23:40.067Z,54.53
2023-01-30T06:26:09.382Z,54.50
2023-01-30T06:28:38.416Z,54.92
2023-01-30T06:31:09.233Z,55.17
2023-01-30T06:33:37.621Z,54.33
2023-01-30T06:36:06.104Z,55.32
2023-01-30T06:38:34.560Z,55.22
2023-01-30T06:41:02.943Z,55.11
2023-01-30T06:43:30.988Z,55.33
2023-01-30T06:46:00.067Z,55.90
2023-01-30T06:48:29.485Z,56.08
2023-01-30T06:50:57.524Z,56.15
2023-01-30T06:53:30.457Z,56.70
2023-01-30T06:55:59.245Z,56.73
2023-01-30T06:58:27.766Z,56.66
2023-01-30T07:00:55.777Z,57.01
2023-01-30T07:03:24.156Z,57.57
2023-01-30T07:05:53.733Z,58.09
2023-01-30T07:08:24.001Z,57.16
2023-01-30T07:10:52.541Z,56.48
2023-01-30T07:13:20.556Z,57.69
2023-01-30T07:15:48.536Z,58.72
2023-01-30T07:18:16.518Z,58.16
2023-01-30T07:20:48.226Z,58.52
2023-01-30T07:23:18.129Z,58.47
2023-01-30T07:25:46.219Z,58.34
2023-01-30T07:28:14.332Z,57.72
2023-01-30T07:30:42.394Z,57.50
2023-01-30T07:33:10.473Z,57.47
2023-01-30T07:35:39.156Z,57.66
2023-01-30T07:38:07.289Z,57.36
2023-01-30T07:40:36.775Z,58.16
2023-01-30T07:43:06.869Z,58.22
2023-01-30T07:45:38.664Z,58.06
2023-01-30T07:48:06.816Z,57.07
2023-01-30T07:50:34.887Z,56.49
2023-01-30T07:53:04.853Z,56.07
2023-01-30T07:55:32.899Z,55.85
2023-01-30T07:58:02.478Z,55.28
2023-01-30T08:00:30.709Z,55.47
2023-01-30T08:02:59.037Z,55.64
2023-01-30T08:05:27.382Z,55.53
2023-01-30T08:07:57.695Z,55.70
2023-01-30T08:10:26.024Z,55.53
2023-01-30T08:12:54.176Z,55.78
2023-01-30T08:15:23.816Z,56.32
2023-01-30T08:17:56.295Z,55.79
2023-01-30T08:20:24.717Z,55.69
2023-01-30T08:22:52.974Z,55.61
2023-01-30T08:25:21.537Z,55.48
2023-01-30T08:27:49.644Z,54.83
2023-01-30T08:30:18.657Z,55.64
2023-01-30T08:32:48.373Z,54.73
2023-01-30T08:35:16.678Z,55.46
2023-01-30T08:37:45.072Z,55.09
2023-01-30T08:40:14.217Z,55.33
2023-01-30T08:42:44.496Z,54.88
2023-01-30T08:45:12.997Z,54.82
2023-01-30T08:47:41.096Z,55.23
2023-01-30T08:50:12.282Z,53.30
2023-01-30T08:52:40.291Z,52.44
2023-01-30T08:55:09.557Z,53.20
2023-01-30T08:57:37.737Z,53.17
2023-01-30T09:00:07.146Z,52.64
2023-01-30T09:02:35.349Z,52.95
2023-01-30T09:05:03.475Z,51.83
2023-01-30T09:07:32.947Z,52.33
2023-01-30T09:10:01.188Z,51.77
2023-01-30T09:12:29.271Z,51.32
2023-01-30T09:14:58.548Z,51.67
2023-01-30T09:17:26.603Z,51.97
2023-01-30T09:19:54.731Z,52.61
2023-01-30T09:22:22.867Z,53.31
2023-01-30T09:24:52.376Z,52.85
2023-01-30T09:27:20.340Z,52.24
2023-01-30T09:29:48.463Z,52.19
2023-01-30T09:32:16.550Z,52.80
2023-01-30T09:34:44.598Z,51.90
2023-01-30T09:37:12.618Z,51.49
2023-01-30T09:39:40.578Z,49.79
2023-01-30T09:45:33.637Z,50.85
2023-01-30T09:48:13.483Z,49.68
2023-01-30T09:51:33.848Z,48.73
2023-01-30T09:54:15.678Z,48.64
2023-01-30T09:56:43.815Z,47.83
2023-01-30T09:59:20.564Z,48.32
2023-01-30T10:01:59.149Z,47.70
2023-01-30T10:04:34.353Z,46.65
2023-01-30T10:07:12.156Z,47.63
2023-01-30T10:09:46.013Z,47.36
2023-01-30T10:12:30.943Z,48.23
2023-01-30T10:15:24.660Z,47.97
2023-01-30T10:18:08.007Z,46.66
2023-01-30T10:20:48.683Z,45.22
2023-01-30T10:23:32.468Z,45.66
2023-01-30T10:26:06.517Z,45.96
2023-01-30T10:28:37.887Z,45.12
2023-01-30T10:31:08.377Z,44.07
2023-01-30T10:33:45.106Z,44.01
2023-01-30T10:36:17.255Z,45.01
2023-01-30T10:38:48.093Z,44.58
2023-01-30T10:41:27.834Z,45.05
2023-01-30T10:44:01.559Z,43.58
2023-01-30T10:46:45.336Z,42.80
2023-01-30T10:49:20.125Z,44.81
2023-01-30T10:51:58.399Z,45.28
2023-01-30T10:54:31.040Z,44.35
2023-01-30T10:57:08.046Z,43.77
2023-01-30T10:59:51.462Z,42.75
2023-01-30T11:02:26.629Z,43.69
2023-01-30T11:05:01.277Z,43.35
2023-01-30T11:07:32.169Z,43.21
2023-01-30T11:10:01.075Z,42.41
2023-01-30T11:12:29.126Z,41.57
2023-01-30T11:14:59.874Z,42.59
2023-01-30T11:17:34.799Z,42.67
2023-01-30T11:20:11.249Z,43.45
2023-01-30T11:22:47.409Z,43.41
2023-01-30T11:25:18.287Z,43.81
2023-01-30T11:27:54.943Z,43.74
2023-01-30T11:30:27.831Z,44.50
2023-01-30T11:33:08.232Z,44.44
2023-01-30T11:35:45.387Z,44.23
2023-01-30T11:38:21.733Z,44.35
2023-01-30T11:40:49.840Z,44.85
2023-01-30T11:43:17.830Z,44.86
2023-01-30T11:45:50.481Z,44.84
2023-01-30T11:48:32.765Z,45.45
2023-01-30T11:51:12.672Z,45.21
2023-01-30T11:53:45.055Z,44.73
2023-01-30T11:56:18.890Z,46.80
2023-01-30T11:58:58.245Z,46.25
2023-01-30T12:01:29.668Z,47.30
2023-01-30T12:03:59.343Z,47.24
2023-01-30T12:06:32.546Z,45.42
2023-01-30T12:09:00.995Z,46.11
2023-01-30T12:11:32.567Z,47.78
2023-01-30T12:14:28.061Z,46.99
2023-01-30T12:17:03.752Z,46.69
2023-01-30T12:19:46.576Z,46.15
2023-01-30T12:22:24.040Z,45.97
2023-01-30T12:24:59.727Z,46.25
2023-01-30T12:27:45.706Z,45.19
2023-01-30T12:30:24.105Z,43.92
2023-01-30T12:32:57.590Z,45.00
2023-01-30T12:35:35.964Z,46.42
2023-01-30T12:38:18.218Z,44.80
2023-01-30T12:40:56.913Z,43.81
2023-01-30T12:43:50.020Z,44.68
2023-01-30T12:46:36.791Z,44.57
2023-01-30T12:49:21.157Z,44.42
2023-01-30T12:52:08.165Z,43.06
2023-01-30T12:54:54.523Z,44.15
2023-01-30T12:57:33.944Z,43.20
2023-01-30T13:00:16.801Z,44.56
2023-01-30T13:02:59.592Z,44.80
2023-01-30T13:05:38.362Z,43.82
2023-01-30T13:08:22.727Z,43.53
2023-01-30T13:11:03.810Z,43.55
2023-01-30T13:13:43.236Z,42.82
2023-01-30T13:16:17.963Z,42.92
2023-01-30T13:18:50.750Z,42.32
2023-01-30T13:21:24.775Z,42.94
2023-01-30T13:24:12.761Z,42.50
2023-01-30T13:26:44.066Z,43.91
2023-01-30T13:29:17.445Z,45.10
2023-01-30T13:31:51.906Z,43.76
2023-01-30T13:34:27.848Z,43.54
2023-01-30T13:37:00.542Z,43.87
2023-01-30T13:39:36.866Z,44.20
2023-01-30T13:42:19.049Z,43.95
2023-01-30T13:44:49.305Z,43.98
2023-01-30T13:47:35.370Z,42.84
2023-01-30T13:50:31.883Z,42.75
2023-01-30T13:53:07.135Z,43.41
2023-01-30T13:55:43.040Z,43.69
2023-01-30T13:58:25.211Z,43.88
2023-01-30T14:00:54.620Z,43.10
2023-01-30T14:03:31.493Z,42.75
2023-01-30T14:06:12.304Z,42.79
2023-01-30T14:08:49.859Z,42.86
2023-01-30T14:11:34.351Z,43.88
2023-01-30T14:14:07.689Z,44.77
2023-01-30T14:16:47.629Z,43.37
2023-01-30T14:19:38.512Z,43.98
2023-01-30T14:22:21.500Z,43.17
2023-01-30T14:25:22.765Z,43.91
2023-01-30T14:27:52.857Z,42.95
2023-01-30T14:30:47.780Z,43.23
2023-01-30T14:33:36.268Z,43.52
2023-01-30T14:36:36.255Z,43.40
2023-01-30T14:39:42.564Z,43.56
2023-01-30T14:42:21.371Z,43.86
2023-01-30T14:45:16.798Z,42.75
2023-01-30T14:47:47.675Z,42.65
2023-01-30T14:50:23.894Z,42.51
2023-01-30T14:52:57.493Z,42.45
2023-01-30T14:55:29.598Z,42.18
2023-01-30T14:58:00.121Z,42.21
2023-01-30T15:00:32.257Z,41.91
2023-01-30T15:03:04.520Z,41.98
2023-01-30T15:05:35.069Z,42.85
2023-01-30T15:08:09.252Z,43.17
2023-01-30T15:10:59.292Z,42.55
2023-01-30T15:13:59.243Z,42.76
2023-01-30T15:16:44.945Z,42.81
2023-01-30T15:19:38.877Z,42.60
2023-01-30T15:22:18.101Z,43.19
2023-01-30T15:25:22.382Z,43.49
2023-01-30T15:28:06.217Z,44.43
2023-01-30T15:30:46.511Z,43.88
2023-01-30T15:33:29.455Z,43.43
2023-01-30T15:36:01.094Z,43.53
2023-01-30T15:38:31.690Z,43.24
2023-01-30T15:41:03.441Z,44.15
2023-01-30T15:43:51.208Z,44.94
2023-01-30T15:46:28.360Z,45.13
2023-01-30T15:49:24.972Z,44.26
2023-01-30T15:51:54.721Z,44.86
2023-01-30T15:54:25.263Z,44.38
2023-01-30T15:56:53.312Z,45.01
2023-01-30T15:59:30.433Z,45.38
2023-01-30T16:02:08.332Z,44.91
2023-01-30T16:04:36.337Z,45.03
2023-01-30T16:07:18.117Z,44.50
2023-01-30T16:10:06.778Z,44.34
2023-01-30T16:12:36.628Z,46.40
2023-01-30T16:15:18.920Z,44.86
2023-01-30T16:17:56.666Z,45.44
2023-01-30T16:20:25.012Z,44.73
2023-01-30T16:22:54.862Z,44.81
2023-01-30T16:25:26.406Z,45.11
2023-01-30T16:27:54.969Z,44.74
2023-01-30T16:30:26.560Z,45.83
2023-01-30T16:32:56.971Z,45.98
2023-01-30T16:35:33.905Z,45.46
2023-01-30T16:38:07.370Z,46.82
2023-01-30T16:40:46.077Z,46.92
2023-01-30T16:43:20.288Z,46.83
2023-01-30T16:46:23.838Z,47.09
2023-01-30T16:48:52.372Z,47.14
2023-01-30T16:51:24.019Z,46.97
2023-01-30T16:53:58.282Z,47.49
2023-01-30T16:56:26.693Z,48.11
2023-01-30T16:58:58.293Z,47.55
2023-01-30T17:01:37.423Z,48.16
2023-01-30T17:04:08.442Z,47.95
2023-01-30T17:06:39.885Z,47.90
2023-01-30T17:09:34.861Z,47.74
2023-01-30T17:12:02.949Z,48.16
2023-01-30T17:14:31.549Z,48.82
2023-01-30T17:17:04.443Z,48.98
2023-01-30T17:19:32.423Z,49.43
2023-01-30T17:22:03.441Z,49.53
2023-01-30T17:24:32.886Z,50.45
2023-01-30T17:27:03.239Z,51.27
2023-01-30T17:29:42.790Z,50.79
2023-01-30T17:32:12.733Z,51.69
2023-01-30T17:34:41.491Z,53.72
2023-01-30T17:37:15.281Z,52.66
2023-01-30T17:39:44.710Z,53.49
2023-01-30T17:42:13.597Z,53.75
2023-01-30T17:44:42.084Z,54.52
2023-01-30T17:47:11.801Z,54.21
2023-01-30T17:49:40.327Z,54.14
2023-01-30T17:52:08.683Z,55.05
2023-01-30T17:54:36.783Z,54.76
2023-01-30T17:57:09.783Z,54.43
2023-01-30T17:59:37.839Z,55.76
2023-01-30T18:02:05.984Z,55.42
2023-01-30T18:04:33.965Z,55.96
2023-01-30T18:07:06.399Z,56.88
2023-01-30T18:09:34.402Z,58.09
2023-01-30T18:12:03.036Z,57.91
2023-01-30T18:14:32.419Z,57.89
2023-01-30T18:17:00.975Z,57.95
2023-01-30T18:19:31.593Z,58.77
2023-01-30T18:22:00.200Z,58.45
2023-01-30T18:24:29.342Z,58.14
2023-01-30T18:26:57.333Z,58.65
2023-01-30T18:29:25.307Z,58.77
2023-01-30T18:31:54.841Z,58.95
2023-01-30T18:34:22.831Z,58.55
2023-01-30T18:36:50.856Z,59.51
2023-01-30T18:39:18.865Z,58.80
2023-01-30T18:41:46.881Z,58.88
2023-01-30T18:44:14.923Z,59.29
2023-01-30T18:46:43.031Z,59.60
2023-01-30T18:49:12.573Z,59.43
2023-01-30T18:51:41.063Z,59.79
2023-01-30T18:54:09.036Z,60.34
2023-01-30T18:56:38.765Z,60.38
2023-01-30T18:59:07.471Z,60.77
2023-01-30T19:01:38.760Z,60.64
2023-01-30T19:04:08.845Z,60.93
2023-01-30T19:06:39.785Z,61.91
2023-01-30T19:09:09.015Z,62.29
2023-01-30T19:11:54.279Z,61.52
2023-01-30T19:14:22.364Z,61.07
2023-01-30T19:16:51.332Z,61.11
2023-01-30T19:19:19.628Z,61.53
2023-01-30T19:21:49.864Z,62.38
2023-01-30T19:24:18.071Z,62.20
2023-01-30T19:26:46.209Z,62.13
2023-01-30T19:29:14.270Z,61.47
2023-01-30T19:31:42.508Z,61.32
2023-01-30T19:34:12.888Z,61.97
2023-01-30T19:36:41.551Z,61.68
2023-01-30T19:39:12.023Z,61.78
2023-01-30T19:41:40.261Z,61.61
2023-01-30T19:44:09.867Z,61.78
2023-01-30T19:46:37.985Z,62.08
2023-01-30T19:49:06.247Z,62.19
2023-01-30T19:51:35.865Z,61.46
2023-01-30T19:54:07.102Z,62.78
2023-01-30T19:56:38.584Z,63.10
2023-01-30T19:59:07.217Z,63.36
2023-01-30T20:01:37.661Z,63.51
2023-01-30T20:04:06.420Z,63.97
2023-01-30T20:06:38.525Z,62.85
2023-01-30T20:09:09.782Z,63.36
2023-01-30T20:11:41.466Z,63.96
2023-01-30T20:14:10.314Z,63.89
2023-01-30T20:16:38.448Z,65.34
2023-01-30T20:19:08.305Z,65.06
2023-01-30T20:21:37.035Z,65.12
2023-01-30T20:24:06.554Z,65.48
2023-01-30T20:26:36.229Z,65.66
2023-01-30T20:29:06.308Z,64.95
2023-01-30T20:31:35.648Z,65.71
2023-01-30T20:34:05.632Z,66.00
2023-01-30T20:36:34.166Z,65.68
2023-01-30T20:39:04.355Z,65.27
2023-01-30T20:41:35.791Z,64.26
2023-01-30T20:44:08.864Z,64.71
2023-01-30T20:46:41.422Z,65.19
2023-01-30T20:49:13.626Z,64.79
2023-01-30T20:51:41.763Z,65.39
2023-01-30T20:54:12.257Z,65.29
2023-01-30T20:56:43.053Z,64.89
2023-01-30T20:59:15.015Z,64.66
2023-01-30T21:01:43.845Z,65.60
2023-01-30T21:04:14.598Z,66.10
2023-01-30T21:06:46.054Z,65.75
2023-01-30T21:09:17.139Z,65.39
2023-01-30T21:11:45.577Z,65.35
2023-01-30T21:14:15.970Z,65.01
2023-01-30T21:16:44.431Z,65.01
2023-01-30T21:19:15.226Z,64.33
2023-01-30T21:21:50.689Z,64.74
2023-01-30T21:24:21.685Z,64.73
2023-01-30T21:26:49.997Z,65.00
2023-01-30T21:29:24.446Z,65.65
2023-01-30T21:31:53.422Z,65.18
2023-01-30T21:34:21.714Z,64.88
2023-01-30T21:37:09.947Z,65.67
2023-01-30T21:39:55.484Z,65.05
2023-01-30T21:42:41.216Z,65.33
2023-01-30T21:45:11.052Z,65.60
2023-01-30T21:47:39.056Z,65.46
2023-01-30T21:50:08.126Z,65.48
2023-01-30T21:52:36.706Z,65.69
2023-01-30T21:55:05.492Z,65.21
2023-01-30T21:57:33.725Z,64.93
2023-01-30T22:00:02.622Z,65.27
2023-01-30T22:02:32.000Z,65.83
2023-01-30T22:04:59.980Z,65.20
2023-01-30T22:07:27.940Z,64.88
2023-01-30T22:09:57.158Z,65.16
2023-01-30T22:12:26.544Z,65.77
2023-01-30T22:14:54.934Z,65.90
2023-01-30T22:17:23.029Z,66.15
2023-01-30T22:19:52.931Z,65.94
2023-01-30T22:22:22.566Z,65.98
2023-01-30T22:24:50.635Z,66.09
2023-01-30T22:27:18.636Z,68.18
2023-01-30T22:29:46.662Z,67.88
2023-01-30T22:32:14.707Z,67.41
2023-01-30T22:34:42.788Z,68.12
2023-01-30T22:37:12.144Z,68.19
2023-01-30T22:39:40.996Z,67.10
2023-01-30T22:42:09.448Z,67.16
2023-01-30T22:44:39.723Z,66.65
2023-01-30T22:47:07.938Z,67.10
2023-01-30T22:49:36.123Z,67.00
2023-01-30T22:52:04.357Z,67.51
2023-01-30T22:54:34.332Z,67.27
2023-01-30T22:57:02.440Z,67.58
2023-01-30T22:59:30.724Z,68.13
2023-01-30T23:01:58.722Z,67.89
2023-01-30T23:04:26.955Z,67.71
2023-01-30T23:06:54.960Z,68.51
2023-01-30T23:09:24.519Z,69.37
2023-01-30T23:12:14.364Z,68.94
2023-01-30T23:14:43.245Z,68.44
2023-01-30T23:17:25.451Z,67.76
2023-01-30T23:19:53.571Z,67.46
2023-01-30T23:22:21.721Z,67.80
2023-01-30T23:24:51.337Z,67.12
2023-01-30T23:27:21.552Z,66.51
2023-01-30T23:29:49.627Z,66.55
2023-01-30T23:32:23.736Z,66.30
2023-01-30T23:34:51.722Z,65.41
2023-01-30T23:37:40.168Z,65.17
2023-01-30T23:40:09.817Z,64.82
2023-01-30T23:42:39.382Z,64.87
2023-01-30T23:45:08.586Z,64.83
2023-01-30T23:47:36.600Z,64.81
2023-01-30T23:50:05.004Z,65.11
2023-01-30T23:52:33.229Z,64.60
2023-01-30T23:55:01.196Z,63.90
2023-01-30T23:57:29.177Z,63.80
2023-01-30T23:59:58.709Z,63.98
